Sao Marcos, Brazil
Current Conditions -  °F | °C
As of 10:00 AM on Wednesday 22 Oct 2014 (Local Time) from SBCO Reporting Station
Clear Clear  
Wind Chill: 68°   Ceiling: Unl
Heat Index: 68°   Visibility: 5mi
Dew Point: 57°   Wind: 1mph
Humidity: 68%   Direction: 180°S
Pressure: 30.18"   Gusts: NA
Location:  28.97°S, 51.07°W
Report Text: SBCO 221200Z 18001KT 8000 NSC 20/14 Q1022
Loading
Personal Weather Stations






























Interactive Weather Map
Tropical Storm Tracking
New forecast layout! Learn more

10-Day Weather Forecast

Advertisements
Track Severe Weather on mobile